sensor_id;sensor_type;location;lat;lon;timestamp;temperature;humidity
69393;SHT31;56582;44.624;20.378;2022-09-25T00:01:33;16.54;67.04
69393;SHT31;56582;44.624;20.378;2022-09-25T00:03:59;16.21;63.98
69393;SHT31;56582;44.624;20.378;2022-09-25T00:06:26;16.00;64.59
69393;SHT31;56582;44.624;20.378;2022-09-25T00:08:53;16.38;69.13
69393;SHT31;56582;44.624;20.378;2022-09-25T00:11:22;16.61;68.40
69393;SHT31;56582;44.624;20.378;2022-09-25T00:13:49;16.68;66.25
69393;SHT31;56582;44.624;20.378;2022-09-25T00:16:18;16.79;67.57
69393;SHT31;56582;44.624;20.378;2022-09-25T00:18:44;16.86;67.42
69393;SHT31;56582;44.624;20.378;2022-09-25T00:21:30;16.37;67.26
69393;SHT31;56582;44.624;20.378;2022-09-25T00:24:05;16.06;67.86
69393;SHT31;56582;44.624;20.378;2022-09-25T00:26:33;16.17;68.22
69393;SHT31;56582;44.624;20.378;2022-09-25T00:29:01;15.92;66.69
69393;SHT31;56582;44.624;20.378;2022-09-25T00:31:28;15.94;66.33
69393;SHT31;56582;44.624;20.378;2022-09-25T00:33:58;15.89;68.99
69393;SHT31;56582;44.624;20.378;2022-09-25T00:36:24;15.89;70.16
69393;SHT31;56582;44.624;20.378;2022-09-25T00:38:49;16.00;69.49
69393;SHT31;56582;44.624;20.378;2022-09-25T00:41:17;16.13;68.45
69393;SHT31;56582;44.624;20.378;2022-09-25T00:43:52;16.18;68.49
69393;SHT31;56582;44.624;20.378;2022-09-25T00:46:36;16.16;68.02
69393;SHT31;56582;44.624;20.378;2022-09-25T00:49:13;16.09;66.72
69393;SHT31;56582;44.624;20.378;2022-09-25T00:51:51;16.10;68.48
69393;SHT31;56582;44.624;20.378;2022-09-25T00:54:30;16.07;68.13
69393;SHT31;56582;44.624;20.378;2022-09-25T00:56:59;16.23;68.62
69393;SHT31;56582;44.624;20.378;2022-09-25T00:59:30;16.28;67.64
69393;SHT31;56582;44.624;20.378;2022-09-25T01:01:57;16.30;68.49
69393;SHT31;56582;44.624;20.378;2022-09-25T01:04:25;16.07;67.62
69393;SHT31;56582;44.624;20.378;2022-09-25T01:06:52;16.00;67.06
69393;SHT31;56582;44.624;20.378;2022-09-25T01:09:18;15.79;69.83
69393;SHT31;56582;44.624;20.378;2022-09-25T01:11:43;15.81;69.41
69393;SHT31;56582;44.624;20.378;2022-09-25T01:14:10;15.86;69.19
69393;SHT31;56582;44.624;20.378;2022-09-25T01:16:56;15.93;69.06
69393;SHT31;56582;44.624;20.378;2022-09-25T01:22:03;16.27;67.57
69393;SHT31;56582;44.624;20.378;2022-09-25T01:35:31;16.07;67.79
69393;SHT31;56582;44.624;20.378;2022-09-25T01:38:06;16.12;68.05
69393;SHT31;56582;44.624;20.378;2022-09-25T01:41:29;16.14;68.96
69393;SHT31;56582;44.624;20.378;2022-09-25T01:43:34;16.21;67.79
69393;SHT31;56582;44.624;20.378;2022-09-25T01:46:05;16.00;66.31
69393;SHT31;56582;44.624;20.378;2022-09-25T01:48:33;16.13;68.34
69393;SHT31;56582;44.624;20.378;2022-09-25T01:51:07;15.94;67.19
69393;SHT31;56582;44.624;20.378;2022-09-25T01:53:44;16.12;68.49
69393;SHT31;56582;44.624;20.378;2022-09-25T01:56:16;16.21;68.14
69393;SHT31;56582;44.624;20.378;2022-09-25T01:58:50;16.31;67.50
69393;SHT31;56582;44.624;20.378;2022-09-25T02:01:24;16.33;67.54
69393;SHT31;56582;44.624;20.378;2022-09-25T02:03:58;16.41;65.29
69393;SHT31;56582;44.624;20.378;2022-09-25T02:06:26;16.35;65.97
69393;SHT31;56582;44.624;20.378;2022-09-25T02:08:55;16.41;65.89
69393;SHT31;56582;44.624;20.378;2022-09-25T02:11:27;16.47;65.71
69393;SHT31;56582;44.624;20.378;2022-09-25T02:14:00;16.34;66.75
69393;SHT31;56582;44.624;20.378;2022-09-25T02:16:33;16.24;65.78
69393;SHT31;56582;44.624;20.378;2022-09-25T02:19:00;16.21;67.42
69393;SHT31;56582;44.624;20.378;2022-09-25T02:21:56;16.25;65.70
69393;SHT31;56582;44.624;20.378;2022-09-25T02:24:42;16.43;67.07
69393;SHT31;56582;44.624;20.378;2022-09-25T02:27:11;16.33;67.20
69393;SHT31;56582;44.624;20.378;2022-09-25T02:29:37;16.41;67.26
69393;SHT31;56582;44.624;20.378;2022-09-25T02:32:14;16.27;64.94
69393;SHT31;56582;44.624;20.378;2022-09-25T02:34:41;16.27;67.75
69393;SHT31;56582;44.624;20.378;2022-09-25T02:37:11;16.13;66.87
69393;SHT31;56582;44.624;20.378;2022-09-25T02:39:37;16.21;67.65
69393;SHT31;56582;44.624;20.378;2022-09-25T02:50:24;16.17;67.75
69393;SHT31;56582;44.624;20.378;2022-09-25T02:58:51;16.44;66.95
69393;SHT31;56582;44.624;20.378;2022-09-25T03:01:19;16.55;66.81
69393;SHT31;56582;44.624;20.378;2022-09-25T03:03:48;16.54;67.27
69393;SHT31;56582;44.624;20.378;2022-09-25T03:06:14;16.50;67.52
69393;SHT31;56582;44.624;20.378;2022-09-25T03:08:44;16.09;67.15
69393;SHT31;56582;44.624;20.378;2022-09-25T03:11:16;16.18;67.95
69393;SHT31;56582;44.624;20.378;2022-09-25T03:13:42;16.14;67.26
69393;SHT31;56582;44.624;20.378;2022-09-25T03:16:15;16.03;67.31
69393;SHT31;56582;44.624;20.378;2022-09-25T03:18:43;16.10;67.59
69393;SHT31;56582;44.624;20.378;2022-09-25T03:21:10;16.20;67.09
69393;SHT31;56582;44.624;20.378;2022-09-25T03:23:36;16.17;66.85
69393;SHT31;56582;44.624;20.378;2022-09-25T03:26:01;16.21;66.66
69393;SHT31;56582;44.624;20.378;2022-09-25T03:28:28;16.20;66.28
69393;SHT31;56582;44.624;20.378;2022-09-25T03:30:58;15.96;64.54
69393;SHT31;56582;44.624;20.378;2022-09-25T03:33:26;15.73;64.43
69393;SHT31;56582;44.624;20.378;2022-09-25T03:36:02;16.07;66.52
69393;SHT31;56582;44.624;20.378;2022-09-25T03:38:27;16.38;66.14
69393;SHT31;56582;44.624;20.378;2022-09-25T03:40:53;16.37;66.08
69393;SHT31;56582;44.624;20.378;2022-09-25T03:43:18;16.44;65.95
69393;SHT31;56582;44.624;20.378;2022-09-25T03:45:44;16.44;65.77
69393;SHT31;56582;44.624;20.378;2022-09-25T03:48:09;16.40;64.20
69393;SHT31;56582;44.624;20.378;2022-09-25T03:50:34;16.40;64.75
69393;SHT31;56582;44.624;20.378;2022-09-25T03:53:00;15.92;65.84
69393;SHT31;56582;44.624;20.378;2022-09-25T03:55:25;16.04;66.41
69393;SHT31;56582;44.624;20.378;2022-09-25T03:57:51;16.27;64.93
69393;SHT31;56582;44.624;20.378;2022-09-25T04:00:16;16.16;66.36
69393;SHT31;56582;44.624;20.378;2022-09-25T04:02:42;16.06;65.20
69393;SHT31;56582;44.624;20.378;2022-09-25T04:05:08;15.92;64.23
69393;SHT31;56582;44.624;20.378;2022-09-25T04:07:34;15.61;65.32
69393;SHT31;56582;44.624;20.378;2022-09-25T04:09:59;15.56;67.21
69393;SHT31;56582;44.624;20.378;2022-09-25T04:12:25;15.63;67.63
69393;SHT31;56582;44.624;20.378;2022-09-25T04:14:50;15.66;65.94
69393;SHT31;56582;44.624;20.378;2022-09-25T04:17:16;15.52;68.91
69393;SHT31;56582;44.624;20.378;2022-09-25T04:19:41;15.48;70.26
69393;SHT31;56582;44.624;20.378;2022-09-25T04:22:07;15.54;68.17
69393;SHT31;56582;44.624;20.378;2022-09-25T04:24:32;15.28;67.76
69393;SHT31;56582;44.624;20.378;2022-09-25T04:27:17;15.39;68.05
69393;SHT31;56582;44.624;20.378;2022-09-25T04:29:44;15.73;68.73
69393;SHT31;56582;44.624;20.378;2022-09-25T04:32:09;15.70;67.84
69393;SHT31;56582;44.624;20.378;2022-09-25T04:34:53;15.38;66.34
69393;SHT31;56582;44.624;20.378;2022-09-25T04:37:19;15.73;69.33
69393;SHT31;56582;44.624;20.378;2022-09-25T04:39:47;15.96;68.44
69393;SHT31;56582;44.624;20.378;2022-09-25T04:42:14;15.97;68.27
69393;SHT31;56582;44.624;20.378;2022-09-25T04:44:39;16.21;67.53
69393;SHT31;56582;44.624;20.378;2022-09-25T04:47:05;16.25;67.35
69393;SHT31;56582;44.624;20.378;2022-09-25T04:49:30;16.38;66.95
69393;SHT31;56582;44.624;20.378;2022-09-25T04:51:55;16.58;66.18
69393;SHT31;56582;44.624;20.378;2022-09-25T04:54:21;16.60;64.03
69393;SHT31;56582;44.624;20.378;2022-09-25T04:56:47;16.38;63.69
69393;SHT31;56582;44.624;20.378;2022-09-25T04:59:12;16.23;66.72
69393;SHT31;56582;44.624;20.378;2022-09-25T05:01:41;16.28;67.02
69393;SHT31;56582;44.624;20.378;2022-09-25T05:04:07;16.33;66.29
69393;SHT31;56582;44.624;20.378;2022-09-25T05:06:32;16.45;66.97
69393;SHT31;56582;44.624;20.378;2022-09-25T05:08:57;16.10;62.78
69393;SHT31;56582;44.624;20.378;2022-09-25T05:11:23;15.90;62.97
69393;SHT31;56582;44.624;20.378;2022-09-25T05:13:50;15.97;67.65
69393;SHT31;56582;44.624;20.378;2022-09-25T05:16:16;16.18;67.21
69393;SHT31;56582;44.624;20.378;2022-09-25T05:18:41;16.20;66.95
69393;SHT31;56582;44.624;20.378;2022-09-25T05:21:07;16.18;66.38
69393;SHT31;56582;44.624;20.378;2022-09-25T05:23:32;16.20;67.25
69393;SHT31;56582;44.624;20.378;2022-09-25T05:25:58;16.21;67.12
69393;SHT31;56582;44.624;20.378;2022-09-25T05:28:31;16.23;66.56
69393;SHT31;56582;44.624;20.378;2022-09-25T05:31:04;16.30;65.80
69393;SHT31;56582;44.624;20.378;2022-09-25T05:33:30;16.33;67.71
69393;SHT31;56582;44.624;20.378;2022-09-25T05:36:03;16.21;63.93
69393;SHT31;56582;44.624;20.378;2022-09-25T05:38:31;16.30;65.45
69393;SHT31;56582;44.624;20.378;2022-09-25T05:41:01;16.60;64.98
69393;SHT31;56582;44.624;20.378;2022-09-25T05:43:28;16.64;65.96
69393;SHT31;56582;44.624;20.378;2022-09-25T05:45:54;16.69;65.53
69393;SHT31;56582;44.624;20.378;2022-09-25T05:48:20;16.72;66.75
69393;SHT31;56582;44.624;20.378;2022-09-25T05:50:50;16.71;66.40
69393;SHT31;56582;44.624;20.378;2022-09-25T05:53:16;16.71;66.55
69393;SHT31;56582;44.624;20.378;2022-09-25T05:55:48;16.75;66.67
69393;SHT31;56582;44.624;20.378;2022-09-25T05:58:14;16.62;63.74
69393;SHT31;56582;44.624;20.378;2022-09-25T06:00:39;16.57;65.93
69393;SHT31;56582;44.624;20.378;2022-09-25T06:03:04;16.43;66.44
69393;SHT31;56582;44.624;20.378;2022-09-25T06:05:30;16.52;66.32
69393;SHT31;56582;44.624;20.378;2022-09-25T06:07:55;16.62;65.06
69393;SHT31;56582;44.624;20.378;2022-09-25T06:10:21;16.85;65.19
69393;SHT31;56582;44.624;20.378;2022-09-25T06:12:46;17.26;64.58
69393;SHT31;56582;44.624;20.378;2022-09-25T06:15:12;17.41;63.76
69393;SHT31;56582;44.624;20.378;2022-09-25T06:17:38;17.54;63.03
69393;SHT31;56582;44.624;20.378;2022-09-25T06:20:03;17.64;62.28
69393;SHT31;56582;44.624;20.378;2022-09-25T06:22:29;17.49;60.94
69393;SHT31;56582;44.624;20.378;2022-09-25T06:24:54;17.12;61.96
69393;SHT31;56582;44.624;20.378;2022-09-25T06:27:20;16.57;62.34
69393;SHT31;56582;44.624;20.378;2022-09-25T06:29:45;16.76;64.53
69393;SHT31;56582;44.624;20.378;2022-09-25T06:32:11;16.96;61.68
69393;SHT31;56582;44.624;20.378;2022-09-25T06:34:36;17.13;61.06
69393;SHT31;56582;44.624;20.378;2022-09-25T06:37:02;16.89;63.51
69393;SHT31;56582;44.624;20.378;2022-09-25T06:39:27;16.96;63.31
69393;SHT31;56582;44.624;20.378;2022-09-25T06:41:53;17.16;63.49
69393;SHT31;56582;44.624;20.378;2022-09-25T06:44:19;17.41;62.18
69393;SHT31;56582;44.624;20.378;2022-09-25T06:46:50;17.63;65.76
69393;SHT31;56582;44.624;20.378;2022-09-25T06:49:19;17.66;62.87
69393;SHT31;56582;44.624;20.378;2022-09-25T06:51:44;17.82;64.76
69393;SHT31;56582;44.624;20.378;2022-09-25T06:54:11;17.95;63.80
69393;SHT31;56582;44.624;20.378;2022-09-25T06:56:36;17.81;61.29
69393;SHT31;56582;44.624;20.378;2022-09-25T06:59:02;17.92;65.38
69393;SHT31;56582;44.624;20.378;2022-09-25T07:01:27;17.82;64.10
69393;SHT31;56582;44.624;20.378;2022-09-25T07:03:53;17.71;59.03
69393;SHT31;56582;44.624;20.378;2022-09-25T07:06:20;17.61;60.81
69393;SHT31;56582;44.624;20.378;2022-09-25T07:08:47;17.34;60.17
69393;SHT31;56582;44.624;20.378;2022-09-25T07:11:15;17.22;60.91
69393;SHT31;56582;44.624;20.378;2022-09-25T07:13:41;17.12;63.93
69393;SHT31;56582;44.624;20.378;2022-09-25T07:16:14;16.85;61.81
69393;SHT31;56582;44.624;20.378;2022-09-25T07:18:40;16.91;64.56
69393;SHT31;56582;44.624;20.378;2022-09-25T07:21:19;16.95;63.94
69393;SHT31;56582;44.624;20.378;2022-09-25T07:23:47;17.03;61.76
69393;SHT31;56582;44.624;20.378;2022-09-25T07:26:22;16.99;64.65
69393;SHT31;56582;44.624;20.378;2022-09-25T07:29:02;16.91;63.12
69393;SHT31;56582;44.624;20.378;2022-09-25T07:31:30;16.73;64.03
69393;SHT31;56582;44.624;20.378;2022-09-25T07:33:56;16.85;63.21
69393;SHT31;56582;44.624;20.378;2022-09-25T07:36:23;16.68;64.57
69393;SHT31;56582;44.624;20.378;2022-09-25T07:38:52;16.88;64.45
69393;SHT31;56582;44.624;20.378;2022-09-25T07:41:19;16.92;63.59
69393;SHT31;56582;44.624;20.378;2022-09-25T07:43:50;16.99;62.69
69393;SHT31;56582;44.624;20.378;2022-09-25T07:46:16;17.18;62.93
69393;SHT31;56582;44.624;20.378;2022-09-25T07:48:42;17.24;65.89
69393;SHT31;56582;44.624;20.378;2022-09-25T07:51:09;17.55;64.53
69393;SHT31;56582;44.624;20.378;2022-09-25T07:53:36;17.61;63.80
69393;SHT31;56582;44.624;20.378;2022-09-25T07:56:02;17.71;60.38
69393;SHT31;56582;44.624;20.378;2022-09-25T07:58:28;18.01;62.32
69393;SHT31;56582;44.624;20.378;2022-09-25T08:00:58;18.05;60.89
69393;SHT31;56582;44.624;20.378;2022-09-25T08:03:24;18.22;60.94
69393;SHT31;56582;44.624;20.378;2022-09-25T08:06:00;18.36;62.12
69393;SHT31;56582;44.624;20.378;2022-09-25T08:08:27;18.61;62.55
69393;SHT31;56582;44.624;20.378;2022-09-25T08:10:58;18.64;59.68
69393;SHT31;56582;44.624;20.378;2022-09-25T08:13:23;18.84;61.14
69393;SHT31;56582;44.624;20.378;2022-09-25T08:15:49;19.10;59.44
69393;SHT31;56582;44.624;20.378;2022-09-25T08:18:16;19.12;59.90
69393;SHT31;56582;44.624;20.378;2022-09-25T08:20:41;19.29;60.45
69393;SHT31;56582;44.624;20.378;2022-09-25T08:23:07;19.38;59.50
69393;SHT31;56582;44.624;20.378;2022-09-25T08:25:32;19.38;60.43
69393;SHT31;56582;44.624;20.378;2022-09-25T08:27:58;19.42;60.15
69393;SHT31;56582;44.624;20.378;2022-09-25T08:30:23;19.67;60.56
69393;SHT31;56582;44.624;20.378;2022-09-25T08:32:49;19.82;56.58
69393;SHT31;56582;44.624;20.378;2022-09-25T08:35:17;19.93;56.00
69393;SHT31;56582;44.624;20.378;2022-09-25T08:37:42;20.00;56.21
69393;SHT31;56582;44.624;20.378;2022-09-25T08:40:23;20.03;53.86
69393;SHT31;56582;44.624;20.378;2022-09-25T08:42:51;20.09;55.10
69393;SHT31;56582;44.624;20.378;2022-09-25T08:45:32;20.06;55.08
69393;SHT31;56582;44.624;20.378;2022-09-25T08:48:26;20.06;57.75
69393;SHT31;56582;44.624;20.378;2022-09-25T08:51:11;20.11;55.15
69393;SHT31;56582;44.624;20.378;2022-09-25T08:53:37;19.97;53.47
69393;SHT31;56582;44.624;20.378;2022-09-25T08:56:04;20.01;56.20
69393;SHT31;56582;44.624;20.378;2022-09-25T08:58:55;20.23;55.89
69393;SHT31;56582;44.624;20.378;2022-09-25T09:01:27;20.27;56.60
69393;SHT31;56582;44.624;20.378;2022-09-25T09:04:08;20.37;54.74
69393;SHT31;56582;44.624;20.378;2022-09-25T09:06:37;20.47;52.27
69393;SHT31;56582;44.624;20.378;2022-09-25T09:09:16;20.45;53.24
69393;SHT31;56582;44.624;20.378;2022-09-25T09:12:00;20.62;54.11
69393;SHT31;56582;44.624;20.378;2022-09-25T09:14:29;20.53;51.78
69393;SHT31;56582;44.624;20.378;2022-09-25T09:16:59;20.76;53.33
69393;SHT31;56582;44.624;20.378;2022-09-25T09:19:27;20.88;53.35
69393;SHT31;56582;44.624;20.378;2022-09-25T09:22:09;20.88;51.63
69393;SHT31;56582;44.624;20.378;2022-09-25T09:24:44;21.02;54.28
69393;SHT31;56582;44.624;20.378;2022-09-25T09:27:40;20.93;51.41
69393;SHT31;56582;44.624;20.378;2022-09-25T09:44:14;21.29;51.21
69393;SHT31;56582;44.624;20.378;2022-09-25T09:46:59;21.43;52.80
69393;SHT31;56582;44.624;20.378;2022-09-25T09:49:38;21.41;52.10
69393;SHT31;56582;44.624;20.378;2022-09-25T09:52:21;21.46;55.38
69393;SHT31;56582;44.624;20.378;2022-09-25T09:57:49;22.01;49.92
69393;SHT31;56582;44.624;20.378;2022-09-25T10:00:18;22.15;50.70
69393;SHT31;56582;44.624;20.378;2022-09-25T10:03:05;22.05;47.56
69393;SHT31;56582;44.624;20.378;2022-09-25T10:06:01;22.10;49.24
69393;SHT31;56582;44.624;20.378;2022-09-25T10:08:28;21.79;46.00
69393;SHT31;56582;44.624;20.378;2022-09-25T10:10:54;21.95;50.15
69393;SHT31;56582;44.624;20.378;2022-09-25T10:13:31;22.16;51.14
69393;SHT31;56582;44.624;20.378;2022-09-25T10:18:54;22.53;47.24
69393;SHT31;56582;44.624;20.378;2022-09-25T10:21:24;22.52;47.08
69393;SHT31;56582;44.624;20.378;2022-09-25T10:23:55;22.56;51.18
69393;SHT31;56582;44.624;20.378;2022-09-25T10:28:51;22.30;47.86
69393;SHT31;56582;44.624;20.378;2022-09-25T10:31:18;22.43;49.62
69393;SHT31;56582;44.624;20.378;2022-09-25T10:34:19;22.40;49.33
69393;SHT31;56582;44.624;20.378;2022-09-25T10:36:50;22.47;49.06
69393;SHT31;56582;44.624;20.378;2022-09-25T10:39:33;22.37;50.65
69393;SHT31;56582;44.624;20.378;2022-09-25T10:42:00;22.12;49.96
69393;SHT31;56582;44.624;20.378;2022-09-25T10:44:37;22.10;50.64
69393;SHT31;56582;44.624;20.378;2022-09-25T10:50:15;21.78;50.57
69393;SHT31;56582;44.624;20.378;2022-09-25T10:52:50;21.75;54.70
69393;SHT31;56582;44.624;20.378;2022-09-25T10:55:31;21.71;52.57
69393;SHT31;56582;44.624;20.378;2022-09-25T11:00:42;21.65;54.61
69393;SHT31;56582;44.624;20.378;2022-09-25T11:03:16;21.65;55.15
69393;SHT31;56582;44.624;20.378;2022-09-25T11:05:51;21.61;54.89
69393;SHT31;56582;44.624;20.378;2022-09-25T11:08:17;22.01;53.23
69393;SHT31;56582;44.624;20.378;2022-09-25T11:10:54;21.89;53.23
69393;SHT31;56582;44.624;20.378;2022-09-25T11:13:25;21.98;54.44
69393;SHT31;56582;44.624;20.378;2022-09-25T11:15:59;22.45;51.14
69393;SHT31;56582;44.624;20.378;2022-09-25T11:18:50;22.59;50.07
69393;SHT31;56582;44.624;20.378;2022-09-25T11:21:31;22.76;50.00
69393;SHT31;56582;44.624;20.378;2022-09-25T11:26:53;23.03;49.26
69393;SHT31;56582;44.624;20.378;2022-09-25T11:37:26;22.98;51.51
69393;SHT31;56582;44.624;20.378;2022-09-25T11:43:25;22.94;49.72
69393;SHT31;56582;44.624;20.378;2022-09-25T11:45:58;22.91;50.58
69393;SHT31;56582;44.624;20.378;2022-09-25T11:48:58;23.03;49.05
69393;SHT31;56582;44.624;20.378;2022-09-25T11:51:47;23.08;51.56
69393;SHT31;56582;44.624;20.378;2022-09-25T11:57:11;22.91;53.59
69393;SHT31;56582;44.624;20.378;2022-09-25T11:59:53;22.97;50.55
69393;SHT31;56582;44.624;20.378;2022-09-25T12:08:44;22.95;50.10
69393;SHT31;56582;44.624;20.378;2022-09-25T12:17:19;22.46;51.72
69393;SHT31;56582;44.624;20.378;2022-09-25T12:20:26;22.26;54.22
69393;SHT31;56582;44.624;20.378;2022-09-25T12:36:24;22.16;55.80
69393;SHT31;56582;44.624;20.378;2022-09-25T12:39:00;22.33;55.43
69393;SHT31;56582;44.624;20.378;2022-09-25T12:41:37;22.29;58.05
69393;SHT31;56582;44.624;20.378;2022-09-25T12:44:21;21.94;57.10
69393;SHT31;56582;44.624;20.378;2022-09-25T12:47:03;21.95;57.52
69393;SHT31;56582;44.624;20.378;2022-09-25T12:49:39;22.15;57.47
69393;SHT31;56582;44.624;20.378;2022-09-25T12:52:11;22.20;57.94
69393;SHT31;56582;44.624;20.378;2022-09-25T12:57:22;21.81;60.26
69393;SHT31;56582;44.624;20.378;2022-09-25T12:59:55;21.78;60.16
69393;SHT31;56582;44.624;20.378;2022-09-25T13:02:25;21.85;60.35
69393;SHT31;56582;44.624;20.378;2022-09-25T13:10:30;21.88;61.27
69393;SHT31;56582;44.624;20.378;2022-09-25T13:12:59;21.99;60.95
69393;SHT31;56582;44.624;20.378;2022-09-25T13:15:30;22.06;60.76
69393;SHT31;56582;44.624;20.378;2022-09-25T13:17:56;22.01;60.94
69393;SHT31;56582;44.624;20.378;2022-09-25T13:26:13;22.08;60.71
69393;SHT31;56582;44.624;20.378;2022-09-25T13:29:03;21.97;60.62
69393;SHT31;56582;44.624;20.378;2022-09-25T13:31:31;22.01;60.41
69393;SHT31;56582;44.624;20.378;2022-09-25T13:34:04;21.74;60.54
69393;SHT31;56582;44.624;20.378;2022-09-25T13:36:40;21.79;60.50
69393;SHT31;56582;44.624;20.378;2022-09-25T13:42:11;21.53;61.95
69393;SHT31;56582;44.624;20.378;2022-09-25T13:50:03;21.23;63.82
69393;SHT31;56582;44.624;20.378;2022-09-25T14:00:21;21.41;61.22
69393;SHT31;56582;44.624;20.378;2022-09-25T14:02:48;21.71;60.71
69393;SHT31;56582;44.624;20.378;2022-09-25T14:05:20;21.99;59.75
69393;SHT31;56582;44.624;20.378;2022-09-25T14:07:52;21.99;60.16
69393;SHT31;56582;44.624;20.378;2022-09-25T14:10:21;22.04;60.46
69393;SHT31;56582;44.624;20.378;2022-09-25T14:12:48;21.97;60.59
69393;SHT31;56582;44.624;20.378;2022-09-25T14:15:22;21.84;61.00
69393;SHT31;56582;44.624;20.378;2022-09-25T14:17:51;21.58;62.49
69393;SHT31;56582;44.624;20.378;2022-09-25T14:20:39;21.34;63.08
69393;SHT31;56582;44.624;20.378;2022-09-25T14:25:45;21.02;63.39
69393;SHT31;56582;44.624;20.378;2022-09-25T14:31:10;20.44;64.44
69393;SHT31;56582;44.624;20.378;2022-09-25T14:36:49;20.79;62.90
69393;SHT31;56582;44.624;20.378;2022-09-25T14:39:34;20.86;62.96
69393;SHT31;56582;44.624;20.378;2022-09-25T14:48:03;20.67;62.02
69393;SHT31;56582;44.624;20.378;2022-09-25T14:50:32;20.64;63.66
69393;SHT31;56582;44.624;20.378;2022-09-25T14:53:03;20.82;63.14
69393;SHT31;56582;44.624;20.378;2022-09-25T14:55:38;20.86;63.20
69393;SHT31;56582;44.624;20.378;2022-09-25T14:58:11;20.92;62.66
69393;SHT31;56582;44.624;20.378;2022-09-25T15:00:48;21.10;61.93
69393;SHT31;56582;44.624;20.378;2022-09-25T15:03:17;21.14;61.93
69393;SHT31;56582;44.624;20.378;2022-09-25T15:05:48;21.33;61.81
69393;SHT31;56582;44.624;20.378;2022-09-25T15:10:46;20.96;62.71
69393;SHT31;56582;44.624;20.378;2022-09-25T15:13:17;20.89;63.06
69393;SHT31;56582;44.624;20.378;2022-09-25T15:15:49;20.96;62.58
69393;SHT31;56582;44.624;20.378;2022-09-25T15:18:39;21.06;62.18
69393;SHT31;56582;44.624;20.378;2022-09-25T15:21:26;21.07;61.97
69393;SHT31;56582;44.624;20.378;2022-09-25T15:23:54;21.07;62.55
69393;SHT31;56582;44.624;20.378;2022-09-25T15:26:20;21.11;62.65
69393;SHT31;56582;44.624;20.378;2022-09-25T15:28:46;21.09;63.49
69393;SHT31;56582;44.624;20.378;2022-09-25T15:31:12;21.14;63.50
69393;SHT31;56582;44.624;20.378;2022-09-25T15:33:38;21.19;63.33
69393;SHT31;56582;44.624;20.378;2022-09-25T15:36:14;20.90;63.64
69393;SHT31;56582;44.624;20.378;2022-09-25T15:38:41;21.09;63.20
69393;SHT31;56582;44.624;20.378;2022-09-25T15:41:12;21.19;62.94
69393;SHT31;56582;44.624;20.378;2022-09-25T15:43:38;21.16;63.07
69393;SHT31;56582;44.624;20.378;2022-09-25T15:48:51;21.02;63.09
69393;SHT31;56582;44.624;20.378;2022-09-25T15:51:20;21.03;62.77
69393;SHT31;56582;44.624;20.378;2022-09-25T15:56:50;20.93;63.01
69393;SHT31;56582;44.624;20.378;2022-09-25T16:01:52;20.98;64.41
69393;SHT31;56582;44.624;20.378;2022-09-25T16:04:36;20.21;66.50
69393;SHT31;56582;44.624;20.378;2022-09-25T16:07:33;20.00;67.07
69393;SHT31;56582;44.624;20.378;2022-09-25T16:12:47;19.44;69.24
69393;SHT31;56582;44.624;20.378;2022-09-25T16:18:01;19.77;67.34
69393;SHT31;56582;44.624;20.378;2022-09-25T16:20:40;19.84;67.09
69393;SHT31;56582;44.624;20.378;2022-09-25T16:23:20;19.89;67.01
69393;SHT31;56582;44.624;20.378;2022-09-25T16:25:48;20.09;67.46
69393;SHT31;56582;44.624;20.378;2022-09-25T16:28:19;19.80;67.26
69393;SHT31;56582;44.624;20.378;2022-09-25T16:30:47;19.79;67.23
69393;SHT31;56582;44.624;20.378;2022-09-25T16:33:23;19.79;67.36
69393;SHT31;56582;44.624;20.378;2022-09-25T16:35:50;19.89;66.75
69393;SHT31;56582;44.624;20.378;2022-09-25T16:38:30;19.98;65.65
69393;SHT31;56582;44.624;20.378;2022-09-25T16:41:14;20.37;65.66
69393;SHT31;56582;44.624;20.378;2022-09-25T16:43:43;20.58;65.12
69393;SHT31;56582;44.624;20.378;2022-09-25T16:46:16;20.65;64.85
69393;SHT31;56582;44.624;20.378;2022-09-25T16:48:56;20.72;64.72
69393;SHT31;56582;44.624;20.378;2022-09-25T16:51:23;20.82;64.16
69393;SHT31;56582;44.624;20.378;2022-09-25T16:53:51;20.90;63.82
69393;SHT31;56582;44.624;20.378;2022-09-25T16:56:21;20.82;64.01
69393;SHT31;56582;44.624;20.378;2022-09-25T16:58:47;20.81;64.05
69393;SHT31;56582;44.624;20.378;2022-09-25T17:01:14;20.88;64.07
69393;SHT31;56582;44.624;20.378;2022-09-25T17:03:40;20.95;63.84
69393;SHT31;56582;44.624;20.378;2022-09-25T17:06:19;20.78;63.44
69393;SHT31;56582;44.624;20.378;2022-09-25T17:08:46;20.41;64.32
69393;SHT31;56582;44.624;20.378;2022-09-25T17:11:12;20.27;64.90
69393;SHT31;56582;44.624;20.378;2022-09-25T17:13:38;19.94;65.03
69393;SHT31;56582;44.624;20.378;2022-09-25T17:16:05;19.84;65.44
69393;SHT31;56582;44.624;20.378;2022-09-25T17:18:30;19.48;64.47
69393;SHT31;56582;44.624;20.378;2022-09-25T17:20:58;19.42;65.92
69393;SHT31;56582;44.624;20.378;2022-09-25T17:23:24;19.45;65.82
69393;SHT31;56582;44.624;20.378;2022-09-25T17:25:57;19.42;64.55
69393;SHT31;56582;44.624;20.378;2022-09-25T17:28:25;19.22;65.27
69393;SHT31;56582;44.624;20.378;2022-09-25T17:30:51;19.11;64.46
69393;SHT31;56582;44.624;20.378;2022-09-25T17:33:19;18.98;64.95
69393;SHT31;56582;44.624;20.378;2022-09-25T17:36:01;18.88;65.20
69393;SHT31;56582;44.624;20.378;2022-09-25T17:38:33;18.94;64.85
69393;SHT31;56582;44.624;20.378;2022-09-25T17:41:00;18.83;65.30
69393;SHT31;56582;44.624;20.378;2022-09-25T17:43:27;18.71;65.58
69393;SHT31;56582;44.624;20.378;2022-09-25T17:45:54;18.64;66.20
69393;SHT31;56582;44.624;20.378;2022-09-25T17:48:25;18.55;66.89
69393;SHT31;56582;44.624;20.378;2022-09-25T17:50:58;18.24;68.09
69393;SHT31;56582;44.624;20.378;2022-09-25T17:53:26;18.10;68.37
69393;SHT31;56582;44.624;20.378;2022-09-25T17:55:53;18.21;67.66
69393;SHT31;56582;44.624;20.378;2022-09-25T17:58:19;18.29;66.23
69393;SHT31;56582;44.624;20.378;2022-09-25T18:00:46;18.29;66.38
69393;SHT31;56582;44.624;20.378;2022-09-25T18:03:14;18.24;66.09
69393;SHT31;56582;44.624;20.378;2022-09-25T18:05:41;18.19;66.50
69393;SHT31;56582;44.624;20.378;2022-09-25T18:08:07;18.16;66.24
69393;SHT31;56582;44.624;20.378;2022-09-25T18:10:33;18.18;66.66
69393;SHT31;56582;44.624;20.378;2022-09-25T18:13:01;18.09;67.27
69393;SHT31;56582;44.624;20.378;2022-09-25T18:15:28;18.05;67.22
69393;SHT31;56582;44.624;20.378;2022-09-25T18:17:54;18.09;67.27